sensor_id;sensor_type;location;lat;lon;timestamp;temperature;humidity
75652;HTU21D;64248;43.602;39.724;2022-12-16T00:01:24;19.67;61.07
75652;HTU21D;64248;43.602;39.724;2022-12-16T00:03:52;19.67;61.12
75652;HTU21D;64248;43.602;39.724;2022-12-16T00:06:19;19.67;61.17
75652;HTU21D;64248;43.602;39.724;2022-12-16T00:08:45;19.67;61.12
75652;HTU21D;64248;43.602;39.724;2022-12-16T00:11:12;19.69;61.00
75652;HTU21D;64248;43.602;39.724;2022-12-16T00:13:38;19.66;61.04
75652;HTU21D;64248;43.602;39.724;2022-12-16T00:16:13;19.66;61.27
75652;HTU21D;64248;43.602;39.724;2022-12-16T00:18:39;19.66;61.34
75652;HTU21D;64248;43.602;39.724;2022-12-16T00:21:06;19.67;61.33
75652;HTU21D;64248;43.602;39.724;2022-12-16T00:23:33;19.67;61.40
75652;HTU21D;64248;43.602;39.724;2022-12-16T00:25:59;19.69;61.31
75652;HTU21D;64248;43.602;39.724;2022-12-16T00:28:26;19.70;61.43
75652;HTU21D;64248;43.602;39.724;2022-12-16T00:30:53;19.68;61.39
75652;HTU21D;64248;43.602;39.724;2022-12-16T00:33:20;19.67;61.28
75652;HTU21D;64248;43.602;39.724;2022-12-16T00:35:46;19.66;61.24
75652;HTU21D;64248;43.602;39.724;2022-12-16T00:38:13;19.63;61.38
75652;HTU21D;64248;43.602;39.724;2022-12-16T00:40:40;19.60;61.34
75652;HTU21D;64248;43.602;39.724;2022-12-16T00:43:06;19.60;61.33
75652;HTU21D;64248;43.602;39.724;2022-12-16T00:45:32;19.58;61.45
75652;HTU21D;64248;43.602;39.724;2022-12-16T00:47:58;19.59;61.44
75652;HTU21D;64248;43.602;39.724;2022-12-16T00:50:24;19.59;61.57
75652;HTU21D;64248;43.602;39.724;2022-12-16T00:52:50;19.60;61.65
75652;HTU21D;64248;43.602;39.724;2022-12-16T00:55:17;19.62;61.76
75652;HTU21D;64248;43.602;39.724;2022-12-16T00:57:44;19.65;61.80
75652;HTU21D;64248;43.602;39.724;2022-12-16T01:00:11;19.70;61.86
75652;HTU21D;64248;43.602;39.724;2022-12-16T01:02:42;19.71;61.76
75652;HTU21D;64248;43.602;39.724;2022-12-16T01:05:10;19.73;61.60
75652;HTU21D;64248;43.602;39.724;2022-12-16T01:07:36;19.74;61.44
75652;HTU21D;64248;43.602;39.724;2022-12-16T01:10:03;19.72;61.34
75652;HTU21D;64248;43.602;39.724;2022-12-16T01:12:29;19.70;61.22
75652;HTU21D;64248;43.602;39.724;2022-12-16T01:14:55;19.68;61.24
75652;HTU21D;64248;43.602;39.724;2022-12-16T01:17:21;19.67;61.41
75652;HTU21D;64248;43.602;39.724;2022-12-16T01:19:47;19.67;61.57
75652;HTU21D;64248;43.602;39.724;2022-12-16T01:22:13;19.68;61.63
75652;HTU21D;64248;43.602;39.724;2022-12-16T01:24:39;19.68;61.57
75652;HTU21D;64248;43.602;39.724;2022-12-16T01:27:05;19.68;61.63
75652;HTU21D;64248;43.602;39.724;2022-12-16T01:29:31;19.66;61.64
75652;HTU21D;64248;43.602;39.724;2022-12-16T01:31:57;19.66;61.61
75652;HTU21D;64248;43.602;39.724;2022-12-16T01:34:23;19.66;61.69
75652;HTU21D;64248;43.602;39.724;2022-12-16T01:36:49;19.66;61.83
75652;HTU21D;64248;43.602;39.724;2022-12-16T01:39:15;19.67;61.67
75652;HTU21D;64248;43.602;39.724;2022-12-16T01:41:41;19.66;61.58
75652;HTU21D;64248;43.602;39.724;2022-12-16T01:44:14;19.65;61.57
75652;HTU21D;64248;43.602;39.724;2022-12-16T01:46:41;19.63;61.58
75652;HTU21D;64248;43.602;39.724;2022-12-16T01:49:20;19.65;61.73
75652;HTU21D;64248;43.602;39.724;2022-12-16T01:51:48;19.67;61.65
75652;HTU21D;64248;43.602;39.724;2022-12-16T01:56:44;19.75;61.70
75652;HTU21D;64248;43.602;39.724;2022-12-16T01:59:12;19.80;61.65
75652;HTU21D;64248;43.602;39.724;2022-12-16T02:01:39;19.86;61.47
75652;HTU21D;64248;43.602;39.724;2022-12-16T02:04:05;19.90;61.38
75652;HTU21D;64248;43.602;39.724;2022-12-16T02:06:34;19.94;61.18
75652;HTU21D;64248;43.602;39.724;2022-12-16T02:09:04;19.97;61.21
75652;HTU21D;64248;43.602;39.724;2022-12-16T02:17:37;20.05;61.02
75652;HTU21D;64248;43.602;39.724;2022-12-16T02:23:15;20.07;60.82
75652;HTU21D;64248;43.602;39.724;2022-12-16T02:36:44;20.05;61.21
75652;HTU21D;64248;43.602;39.724;2022-12-16T02:39:24;20.06;61.11
75652;HTU21D;64248;43.602;39.724;2022-12-16T02:42:01;20.03;61.12
75652;HTU21D;64248;43.602;39.724;2022-12-16T02:47:30;20.02;61.10
75652;HTU21D;64248;43.602;39.724;2022-12-16T02:49:58;19.95;61.11
75652;HTU21D;64248;43.602;39.724;2022-12-16T02:52:26;19.88;61.39
75652;HTU21D;64248;43.602;39.724;2022-12-16T02:54:58;19.87;61.58
75652;HTU21D;64248;43.602;39.724;2022-12-16T02:57:49;19.89;61.56
75652;HTU21D;64248;43.602;39.724;2022-12-16T03:00:21;19.90;61.54
75652;HTU21D;64248;43.602;39.724;2022-12-16T03:05:44;19.85;61.37
75652;HTU21D;64248;43.602;39.724;2022-12-16T03:08:29;19.83;61.53
75652;HTU21D;64248;43.602;39.724;2022-12-16T03:10:58;19.81;61.42
75652;HTU21D;64248;43.602;39.724;2022-12-16T03:13:26;19.79;61.36
75652;HTU21D;64248;43.602;39.724;2022-12-16T03:15:57;19.79;61.19
75652;HTU21D;64248;43.602;39.724;2022-12-16T03:18:23;19.77;61.04
75652;HTU21D;64248;43.602;39.724;2022-12-16T03:20:56;19.77;60.99
75652;HTU21D;64248;43.602;39.724;2022-12-16T03:23:46;19.71;61.05
75652;HTU21D;64248;43.602;39.724;2022-12-16T03:26:24;19.52;61.24
75652;HTU21D;64248;43.602;39.724;2022-12-16T03:29:04;19.30;61.67
75652;HTU21D;64248;43.602;39.724;2022-12-16T03:31:46;19.12;62.34
75652;HTU21D;64248;43.602;39.724;2022-12-16T03:37:02;18.93;62.82
75652;HTU21D;64248;43.602;39.724;2022-12-16T03:39:32;18.86;63.00
75652;HTU21D;64248;43.602;39.724;2022-12-16T03:42:00;18.77;63.34
75652;HTU21D;64248;43.602;39.724;2022-12-16T03:44:27;18.76;63.56
75652;HTU21D;64248;43.602;39.724;2022-12-16T03:46:54;18.73;63.55
75652;HTU21D;64248;43.602;39.724;2022-12-16T03:49:21;18.70;63.73
75652;HTU21D;64248;43.602;39.724;2022-12-16T03:51:48;18.67;63.76
75652;HTU21D;64248;43.602;39.724;2022-12-16T03:54:14;18.66;63.88
75652;HTU21D;64248;43.602;39.724;2022-12-16T03:56:40;18.62;63.98
75652;HTU21D;64248;43.602;39.724;2022-12-16T03:59:06;18.67;63.98
75652;HTU21D;64248;43.602;39.724;2022-12-16T04:01:32;18.71;63.89
75652;HTU21D;64248;43.602;39.724;2022-12-16T04:03:58;18.77;63.79
75652;HTU21D;64248;43.602;39.724;2022-12-16T04:06:24;18.73;63.55
75652;HTU21D;64248;43.602;39.724;2022-12-16T04:08:49;18.66;63.77
75652;HTU21D;64248;43.602;39.724;2022-12-16T04:11:15;18.64;63.94
75652;HTU21D;64248;43.602;39.724;2022-12-16T04:14:00;18.52;63.93
75652;HTU21D;64248;43.602;39.724;2022-12-16T04:16:44;18.34;64.34
75652;HTU21D;64248;43.602;39.724;2022-12-16T04:19:35;18.25;64.71
75652;HTU21D;64248;43.602;39.724;2022-12-16T04:25:12;18.15;64.98
75652;HTU21D;64248;43.602;39.724;2022-12-16T04:27:38;18.04;64.98
75652;HTU21D;64248;43.602;39.724;2022-12-16T04:30:05;17.98;65.32
75652;HTU21D;64248;43.602;39.724;2022-12-16T04:32:53;17.92;65.48
75652;HTU21D;64248;43.602;39.724;2022-12-16T04:35:38;17.80;65.50
75652;HTU21D;64248;43.602;39.724;2022-12-16T04:38:23;17.68;65.91
75652;HTU21D;64248;43.602;39.724;2022-12-16T04:41:07;17.60;66.17
75652;HTU21D;64248;43.602;39.724;2022-12-16T04:43:52;17.45;66.47
75652;HTU21D;64248;43.602;39.724;2022-12-16T04:46:36;17.32;66.78
75652;HTU21D;64248;43.602;39.724;2022-12-16T04:49:20;17.29;67.00
75652;HTU21D;64248;43.602;39.724;2022-12-16T04:52:05;17.29;67.21
75652;HTU21D;64248;43.602;39.724;2022-12-16T04:55:10;17.31;67.13
75652;HTU21D;64248;43.602;39.724;2022-12-16T04:57:56;17.19;67.18
75652;HTU21D;64248;43.602;39.724;2022-12-16T05:00:43;17.08;67.48
75652;HTU21D;64248;43.602;39.724;2022-12-16T05:03:28;17.02;67.68
75652;HTU21D;64248;43.602;39.724;2022-12-16T05:06:13;16.90;67.94
75652;HTU21D;64248;43.602;39.724;2022-12-16T05:08:58;16.81;68.20
75652;HTU21D;64248;43.602;39.724;2022-12-16T05:11:42;16.74;68.41
75652;HTU21D;64248;43.602;39.724;2022-12-16T05:14:27;16.64;68.65
75652;HTU21D;64248;43.602;39.724;2022-12-16T05:17:12;16.55;69.00
75652;HTU21D;64248;43.602;39.724;2022-12-16T05:19:57;16.45;69.22
75652;HTU21D;64248;43.602;39.724;2022-12-16T05:22:41;16.40;69.49
75652;HTU21D;64248;43.602;39.724;2022-12-16T05:25:25;16.37;69.63
75652;HTU21D;64248;43.602;39.724;2022-12-16T05:28:10;16.36;69.87
75652;HTU21D;64248;43.602;39.724;2022-12-16T05:30:54;16.37;70.00
75652;HTU21D;64248;43.602;39.724;2022-12-16T05:33:39;16.37;69.96
75652;HTU21D;64248;43.602;39.724;2022-12-16T05:36:23;16.32;70.12
75652;HTU21D;64248;43.602;39.724;2022-12-16T05:39:08;16.36;70.24
75652;HTU21D;64248;43.602;39.724;2022-12-16T05:41:53;16.42;70.20
75652;HTU21D;64248;43.602;39.724;2022-12-16T05:44:37;16.43;70.26
75652;HTU21D;64248;43.602;39.724;2022-12-16T05:47:21;16.39;70.27
75652;HTU21D;64248;43.602;39.724;2022-12-16T05:50:06;16.39;70.42
75652;HTU21D;64248;43.602;39.724;2022-12-16T05:52:57;16.41;70.52
75652;HTU21D;64248;43.602;39.724;2022-12-16T05:55:42;16.41;70.52
75652;HTU21D;64248;43.602;39.724;2022-12-16T05:58:27;16.47;70.61
75652;HTU21D;64248;43.602;39.724;2022-12-16T06:01:12;16.60;70.45
75652;HTU21D;64248;43.602;39.724;2022-12-16T06:03:56;16.64;70.32
75652;HTU21D;64248;43.602;39.724;2022-12-16T06:06:41;16.62;70.22
75652;HTU21D;64248;43.602;39.724;2022-12-16T06:09:26;16.50;70.35
75652;HTU21D;64248;43.602;39.724;2022-12-16T06:12:11;16.44;70.80
75652;HTU21D;64248;43.602;39.724;2022-12-16T06:14:55;16.44;70.99
75652;HTU21D;64248;43.602;39.724;2022-12-16T06:17:46;16.43;70.99
75652;HTU21D;64248;43.602;39.724;2022-12-16T06:20:31;16.45;71.16
75652;HTU21D;64248;43.602;39.724;2022-12-16T06:23:15;16.47;71.08
75652;HTU21D;64248;43.602;39.724;2022-12-16T06:26:00;16.44;71.08
75652;HTU21D;64248;43.602;39.724;2022-12-16T06:28:44;16.39;71.13
75652;HTU21D;64248;43.602;39.724;2022-12-16T06:31:28;16.34;71.24
75652;HTU21D;64248;43.602;39.724;2022-12-16T06:34:13;16.30;71.51
75652;HTU21D;64248;43.602;39.724;2022-12-16T06:36:57;16.22;71.62
75652;HTU21D;64248;43.602;39.724;2022-12-16T06:39:42;16.18;71.81
75652;HTU21D;64248;43.602;39.724;2022-12-16T06:42:26;16.12;71.82
75652;HTU21D;64248;43.602;39.724;2022-12-16T06:45:11;16.02;72.09
75652;HTU21D;64248;43.602;39.724;2022-12-16T06:47:55;15.97;72.31
75652;HTU21D;64248;43.602;39.724;2022-12-16T06:50:39;16.01;72.57
75652;HTU21D;64248;43.602;39.724;2022-12-16T06:53:23;16.04;72.55
75652;HTU21D;64248;43.602;39.724;2022-12-16T06:56:08;16.16;72.81
75652;HTU21D;64248;43.602;39.724;2022-12-16T06:58:52;16.32;73.54
75652;HTU21D;64248;43.602;39.724;2022-12-16T07:01:36;16.56;73.29
75652;HTU21D;64248;43.602;39.724;2022-12-16T07:04:21;16.76;72.96
75652;HTU21D;64248;43.602;39.724;2022-12-16T07:07:05;16.99;72.90
75652;HTU21D;64248;43.602;39.724;2022-12-16T07:09:50;17.28;72.41
75652;HTU21D;64248;43.602;39.724;2022-12-16T07:12:34;17.43;71.64
75652;HTU21D;64248;43.602;39.724;2022-12-16T07:15:19;17.64;71.48
75652;HTU21D;64248;43.602;39.724;2022-12-16T07:18:03;17.82;70.80
75652;HTU21D;64248;43.602;39.724;2022-12-16T07:20:48;18.02;70.44
75652;HTU21D;64248;43.602;39.724;2022-12-16T07:23:32;18.26;70.03
75652;HTU21D;64248;43.602;39.724;2022-12-16T07:26:16;18.40;69.10
75652;HTU21D;64248;43.602;39.724;2022-12-16T07:29:01;18.37;68.87
75652;HTU21D;64248;43.602;39.724;2022-12-16T07:31:45;18.42;68.90
75652;HTU21D;64248;43.602;39.724;2022-12-16T07:34:30;18.51;68.84
75652;HTU21D;64248;43.602;39.724;2022-12-16T07:37:16;18.70;68.81
75652;HTU21D;64248;43.602;39.724;2022-12-16T07:40:01;18.91;68.30
75652;HTU21D;64248;43.602;39.724;2022-12-16T07:42:46;19.11;67.75
75652;HTU21D;64248;43.602;39.724;2022-12-16T07:45:30;19.23;67.27
75652;HTU21D;64248;43.602;39.724;2022-12-16T07:48:15;19.32;67.05
75652;HTU21D;64248;43.602;39.724;2022-12-16T07:50:59;19.38;66.65
75652;HTU21D;64248;43.602;39.724;2022-12-16T07:53:44;19.47;66.56
75652;HTU21D;64248;43.602;39.724;2022-12-16T07:56:28;19.58;66.35
75652;HTU21D;64248;43.602;39.724;2022-12-16T07:59:12;19.68;66.09
75652;HTU21D;64248;43.602;39.724;2022-12-16T08:01:57;19.75;65.82
75652;HTU21D;64248;43.602;39.724;2022-12-16T08:04:41;19.84;65.68
75652;HTU21D;64248;43.602;39.724;2022-12-16T08:07:26;19.90;65.45
75652;HTU21D;64248;43.602;39.724;2022-12-16T08:10:10;19.92;65.24
75652;HTU21D;64248;43.602;39.724;2022-12-16T08:13:02;19.92;65.09
75652;HTU21D;64248;43.602;39.724;2022-12-16T08:15:47;19.92;65.01
75652;HTU21D;64248;43.602;39.724;2022-12-16T08:18:31;19.95;64.85
75652;HTU21D;64248;43.602;39.724;2022-12-16T08:21:16;20.01;64.72
75652;HTU21D;64248;43.602;39.724;2022-12-16T08:24:00;20.05;64.61
75652;HTU21D;64248;43.602;39.724;2022-12-16T08:26:45;20.10;64.48
75652;HTU21D;64248;43.602;39.724;2022-12-16T08:29:29;20.13;64.26
75652;HTU21D;64248;43.602;39.724;2022-12-16T08:32:14;20.06;63.94
75652;HTU21D;64248;43.602;39.724;2022-12-16T08:34:59;19.92;64.21
75652;HTU21D;64248;43.602;39.724;2022-12-16T08:37:44;19.91;64.34
75652;HTU21D;64248;43.602;39.724;2022-12-16T08:40:29;19.89;64.18
75652;HTU21D;64248;43.602;39.724;2022-12-16T08:43:13;19.88;64.27
75652;HTU21D;64248;43.602;39.724;2022-12-16T08:45:58;19.88;64.26
75652;HTU21D;64248;43.602;39.724;2022-12-16T08:48:42;19.88;64.13
75652;HTU21D;64248;43.602;39.724;2022-12-16T08:51:28;19.86;64.21
75652;HTU21D;64248;43.602;39.724;2022-12-16T08:54:12;19.86;64.12
75652;HTU21D;64248;43.602;39.724;2022-12-16T08:56:57;19.89;64.08
75652;HTU21D;64248;43.602;39.724;2022-12-16T08:59:41;19.97;63.99
75652;HTU21D;64248;43.602;39.724;2022-12-16T09:02:25;20.02;63.75
75652;HTU21D;64248;43.602;39.724;2022-12-16T09:05:11;20.09;63.57
75652;HTU21D;64248;43.602;39.724;2022-12-16T09:08:00;20.11;63.32
75652;HTU21D;64248;43.602;39.724;2022-12-16T09:10:45;20.09;63.41
75652;HTU21D;64248;43.602;39.724;2022-12-16T09:13:29;20.09;63.40
75652;HTU21D;64248;43.602;39.724;2022-12-16T09:16:13;20.04;63.43
75652;HTU21D;64248;43.602;39.724;2022-12-16T09:18:58;20.01;63.50
75652;HTU21D;64248;43.602;39.724;2022-12-16T09:21:42;19.97;63.47
75652;HTU21D;64248;43.602;39.724;2022-12-16T09:24:26;19.97;63.41
75652;HTU21D;64248;43.602;39.724;2022-12-16T09:27:11;19.96;63.43
75652;HTU21D;64248;43.602;39.724;2022-12-16T09:29:55;19.92;63.31
75652;HTU21D;64248;43.602;39.724;2022-12-16T09:32:43;19.90;63.16
75652;HTU21D;64248;43.602;39.724;2022-12-16T09:35:28;19.82;63.24
75652;HTU21D;64248;43.602;39.724;2022-12-16T09:38:14;19.79;63.49
75652;HTU21D;64248;43.602;39.724;2022-12-16T09:41:19;19.82;63.61
75652;HTU21D;64248;43.602;39.724;2022-12-16T09:50:23;20.00;63.47
75652;HTU21D;64248;43.602;39.724;2022-12-16T09:53:17;20.09;63.37
75652;HTU21D;64248;43.602;39.724;2022-12-16T09:56:04;20.15;63.23
75652;HTU21D;64248;43.602;39.724;2022-12-16T09:58:55;20.16;63.10
75652;HTU21D;64248;43.602;39.724;2022-12-16T10:01:42;20.18;63.02
75652;HTU21D;64248;43.602;39.724;2022-12-16T10:04:26;20.20;63.08
75652;HTU21D;64248;43.602;39.724;2022-12-16T10:07:18;20.24;62.94
75652;HTU21D;64248;43.602;39.724;2022-12-16T10:13:05;20.32;62.75
75652;HTU21D;64248;43.602;39.724;2022-12-16T10:16:01;20.40;62.50
75652;HTU21D;64248;43.602;39.724;2022-12-16T10:23:04;20.50;62.05
75652;HTU21D;64248;43.602;39.724;2022-12-16T10:28:46;20.39;62.03
75652;HTU21D;64248;43.602;39.724;2022-12-16T10:31:32;20.37;62.15
75652;HTU21D;64248;43.602;39.724;2022-12-16T10:34:28;20.39;62.04
75652;HTU21D;64248;43.602;39.724;2022-12-16T10:37:17;20.36;62.02
75652;HTU21D;64248;43.602;39.724;2022-12-16T10:40:05;20.40;61.86
75652;HTU21D;64248;43.602;39.724;2022-12-16T10:43:17;20.37;61.62
75652;HTU21D;64248;43.602;39.724;2022-12-16T10:46:21;20.29;61.91
75652;HTU21D;64248;43.602;39.724;2022-12-16T10:49:13;20.33;61.99
75652;HTU21D;64248;43.602;39.724;2022-12-16T10:51:58;20.36;61.86
75652;HTU21D;64248;43.602;39.724;2022-12-16T10:58:04;20.34;62.00
75652;HTU21D;64248;43.602;39.724;2022-12-16T11:00:51;20.31;61.82
75652;HTU21D;64248;43.602;39.724;2022-12-16T11:03:37;20.25;62.04
75652;HTU21D;64248;43.602;39.724;2022-12-16T11:06:41;20.28;62.03
75652;HTU21D;64248;43.602;39.724;2022-12-16T11:09:31;20.22;61.98
75652;HTU21D;64248;43.602;39.724;2022-12-16T11:12:28;20.19;62.22
75652;HTU21D;64248;43.602;39.724;2022-12-16T11:15:33;20.27;62.21
75652;HTU21D;64248;43.602;39.724;2022-12-16T11:18:21;20.31;62.21
75652;HTU21D;64248;43.602;39.724;2022-12-16T11:21:19;20.35;61.98
75652;HTU21D;64248;43.602;39.724;2022-12-16T11:24:11;20.37;61.94
75652;HTU21D;64248;43.602;39.724;2022-12-16T11:26:59;20.40;61.75
75652;HTU21D;64248;43.602;39.724;2022-12-16T11:29:52;20.41;61.60
75652;HTU21D;64248;43.602;39.724;2022-12-16T11:32:39;20.36;61.70
75652;HTU21D;64248;43.602;39.724;2022-12-16T11:35:28;20.37;61.75
75652;HTU21D;64248;43.602;39.724;2022-12-16T11:38:40;20.35;61.73
75652;HTU21D;64248;43.602;39.724;2022-12-16T11:41:51;20.39;61.73
75652;HTU21D;64248;43.602;39.724;2022-12-16T11:48:30;20.34;61.69
75652;HTU21D;64248;43.602;39.724;2022-12-16T11:51:13;20.37;61.81
75652;HTU21D;64248;43.602;39.724;2022-12-16T11:54:04;20.34;61.70
75652;HTU21D;64248;43.602;39.724;2022-12-16T11:56:51;20.25;61.69
75652;HTU21D;64248;43.602;39.724;2022-12-16T11:59:47;20.10;61.89
75652;HTU21D;64248;43.602;39.724;2022-12-16T12:11:33;19.92;62.38
75652;HTU21D;64248;43.602;39.724;2022-12-16T12:14:43;19.92;62.53
75652;HTU21D;64248;43.602;39.724;2022-12-16T12:27:31;20.01;62.00
75652;HTU21D;64248;43.602;39.724;2022-12-16T12:30:20;19.98;62.37
75652;HTU21D;64248;43.602;39.724;2022-12-16T12:35:57;19.94;62.29
75652;HTU21D;64248;43.602;39.724;2022-12-16T12:38:59;19.97;62.17
75652;HTU21D;64248;43.602;39.724;2022-12-16T12:44:57;20.13;61.80
75652;HTU21D;64248;43.602;39.724;2022-12-16T12:51:12;20.26;61.46
75652;HTU21D;64248;43.602;39.724;2022-12-16T12:57:01;20.36;60.65
75652;HTU21D;64248;43.602;39.724;2022-12-16T13:05:43;20.49;60.47
75652;HTU21D;64248;43.602;39.724;2022-12-16T13:11:21;20.57;60.03
75652;HTU21D;64248;43.602;39.724;2022-12-16T13:17:22;20.63;59.71
75652;HTU21D;64248;43.602;39.724;2022-12-16T13:23:28;20.63;59.52
75652;HTU21D;64248;43.602;39.724;2022-12-16T13:26:17;20.59;59.50
75652;HTU21D;64248;43.602;39.724;2022-12-16T13:29:28;20.57;59.29
75652;HTU21D;64248;43.602;39.724;2022-12-16T13:32:19;20.55;59.19
75652;HTU21D;64248;43.602;39.724;2022-12-16T13:37:55;20.51;59.38
75652;HTU21D;64248;43.602;39.724;2022-12-16T13:40:49;20.50;59.61
75652;HTU21D;64248;43.602;39.724;2022-12-16T13:46:49;20.53;59.54
75652;HTU21D;64248;43.602;39.724;2022-12-16T13:49:47;20.49;59.12
75652;HTU21D;64248;43.602;39.724;2022-12-16T13:53:01;20.44;58.83
75652;HTU21D;64248;43.602;39.724;2022-12-16T13:55:56;20.36;58.90
75652;HTU21D;64248;43.602;39.724;2022-12-16T13:58:46;20.29;59.00
75652;HTU21D;64248;43.602;39.724;2022-12-16T14:01:47;20.01;58.96
75652;HTU21D;64248;43.602;39.724;2022-12-16T14:07:32;19.22;60.15
75652;HTU21D;64248;43.602;39.724;2022-12-16T14:10:35;18.82;60.87
75652;HTU21D;64248;43.602;39.724;2022-12-16T14:19:36;17.83;62.90
75652;HTU21D;64248;43.602;39.724;2022-12-16T14:25:41;17.34;64.24
75652;HTU21D;64248;43.602;39.724;2022-12-16T14:28:36;17.18;64.67
75652;HTU21D;64248;43.602;39.724;2022-12-16T14:31:35;17.01;65.17
75652;HTU21D;64248;43.602;39.724;2022-12-16T14:34:25;16.89;65.51
75652;HTU21D;64248;43.602;39.724;2022-12-16T14:37:16;16.76;65.95
75652;HTU21D;64248;43.602;39.724;2022-12-16T14:40:01;16.65;66.30
75652;HTU21D;64248;43.602;39.724;2022-12-16T14:42:48;16.57;66.74
75652;HTU21D;64248;43.602;39.724;2022-12-16T14:45:36;16.46;67.10
75652;HTU21D;64248;43.602;39.724;2022-12-16T14:48:24;16.39;67.52
75652;HTU21D;64248;43.602;39.724;2022-12-16T14:51:34;16.31;67.78
75652;HTU21D;64248;43.602;39.724;2022-12-16T14:54:41;16.24;67.98
75652;HTU21D;64248;43.602;39.724;2022-12-16T14:57:28;16.14;68.25
75652;HTU21D;64248;43.602;39.724;2022-12-16T15:00:21;16.07;68.53
75652;HTU21D;64248;43.602;39.724;2022-12-16T15:03:39;16.03;68.71
75652;HTU21D;64248;43.602;39.724;2022-12-16T15:06:52;15.96;68.98
75652;HTU21D;64248;43.602;39.724;2022-12-16T15:09:40;15.90;69.16
75652;HTU21D;64248;43.602;39.724;2022-12-16T15:12:29;15.86;69.36
75652;HTU21D;64248;43.602;39.724;2022-12-16T15:15:31;15.82;69.42
75652;HTU21D;64248;43.602;39.724;2022-12-16T15:18:19;15.75;69.60
75652;HTU21D;64248;43.602;39.724;2022-12-16T15:21:05;15.72;69.82
75652;HTU21D;64248;43.602;39.724;2022-12-16T15:23:50;15.68;70.00
75652;HTU21D;64248;43.602;39.724;2022-12-16T15:26:35;15.68;70.26
75652;HTU21D;64248;43.602;39.724;2022-12-16T15:29:33;15.67;70.46
75652;HTU21D;64248;43.602;39.724;2022-12-16T15:35:22;15.61;70.81
75652;HTU21D;64248;43.602;39.724;2022-12-16T15:38:30;15.59;70.94
75652;HTU21D;64248;43.602;39.724;2022-12-16T15:41:21;15.55;70.59
75652;HTU21D;64248;43.602;39.724;2022-12-16T15:44:23;15.53;70.86
75652;HTU21D;64248;43.602;39.724;2022-12-16T15:47:33;15.52;71.10
75652;HTU21D;64248;43.602;39.724;2022-12-16T15:50:21;15.51;71.19
75652;HTU21D;64248;43.602;39.724;2022-12-16T15:56:20;15.53;71.42
75652;HTU21D;64248;43.602;39.724;2022-12-16T16:02:25;15.52;71.52
75652;HTU21D;64248;43.602;39.724;2022-12-16T16:05:21;15.51;71.57
75652;HTU21D;64248;43.602;39.724;2022-12-16T16:08:09;15.49;71.59
75652;HTU21D;64248;43.602;39.724;2022-12-16T16:10:53;15.46;71.67
75652;HTU21D;64248;43.602;39.724;2022-12-16T16:13:37;15.46;71.85
75652;HTU21D;64248;43.602;39.724;2022-12-16T16:16:22;15.48;71.98
75652;HTU21D;64248;43.602;39.724;2022-12-16T16:19:15;15.46;72.09
75652;HTU21D;64248;43.602;39.724;2022-12-16T16:22:01;15.44;72.05
75652;HTU21D;64248;43.602;39.724;2022-12-16T16:24:45;15.42;72.10
75652;HTU21D;64248;43.602;39.724;2022-12-16T16:27:30;15.43;72.22
75652;HTU21D;64248;43.602;39.724;2022-12-16T16:30:15;15.41;72.35
75652;HTU21D;64248;43.602;39.724;2022-12-16T16:32:59;15.41;72.38
75652;HTU21D;64248;43.602;39.724;2022-12-16T16:35:43;15.42;72.41
75652;HTU21D;64248;43.602;39.724;2022-12-16T16:38:28;15.42;72.46
75652;HTU21D;64248;43.602;39.724;2022-12-16T16:41:15;15.42;72.53
75652;HTU21D;64248;43.602;39.724;2022-12-16T16:44:00;15.44;72.48
75652;HTU21D;64248;43.602;39.724;2022-12-16T16:46:45;15.43;72.47
75652;HTU21D;64248;43.602;39.724;2022-12-16T16:49:36;15.45;72.52
75652;HTU21D;64248;43.602;39.724;2022-12-16T16:52:24;15.47;72.57
75652;HTU21D;64248;43.602;39.724;2022-12-16T16:55:17;15.48;72.61
75652;HTU21D;64248;43.602;39.724;2022-12-16T16:58:10;15.48;72.58
75652;HTU21D;64248;43.602;39.724;2022-12-16T17:00:56;15.51;72.49
75652;HTU21D;64248;43.602;39.724;2022-12-16T17:03:40;15.49;72.52
75652;HTU21D;64248;43.602;39.724;2022-12-16T17:06:25;15.51;72.54
75652;HTU21D;64248;43.602;39.724;2022-12-16T17:09:10;15.48;72.53
75652;HTU21D;64248;43.602;39.724;2022-12-16T17:11:54;15.44;72.58
75652;HTU21D;64248;43.602;39.724;2022-12-16T17:14:38;15.44;72.73
75652;HTU21D;64248;43.602;39.724;2022-12-16T17:17:23;15.43;72.75
75652;HTU21D;64248;43.602;39.724;2022-12-16T17:20:15;15.43;72.95
75652;HTU21D;64248;43.602;39.724;2022-12-16T17:23:00;15.43;72.99
75652;HTU21D;64248;43.602;39.724;2022-12-16T17:25:44;15.43;73.06
75652;HTU21D;64248;43.602;39.724;2022-12-16T17:28:28;15.42;73.09
75652;HTU21D;64248;43.602;39.724;2022-12-16T17:31:13;15.42;73.10
75652;HTU21D;64248;43.602;39.724;2022-12-16T17:33:57;15.39;73.14
75652;HTU21D;64248;43.602;39.724;2022-12-16T17:36:41;15.39;73.22
75652;HTU21D;64248;43.602;39.724;2022-12-16T17:39:26;15.38;73.19
75652;HTU21D;64248;43.602;39.724;2022-12-16T17:42:10;15.38;73.22
75652;HTU21D;64248;43.602;39.724;2022-12-16T17:44:54;15.37;73.35
75652;HTU21D;64248;43.602;39.724;2022-12-16T17:47:40;15.37;73.44
75652;HTU21D;64248;43.602;39.724;2022-12-16T17:50:24;15.37;73.49
75652;HTU21D;64248;43.602;39.724;2022-12-16T17:53:08;15.37;73.52
75652;HTU21D;64248;43.602;39.724;2022-12-16T17:55:52;15.37;73.48
75652;HTU21D;64248;43.602;39.724;2022-12-16T17:58:37;15.37;73.50
75652;HTU21D;64248;43.602;39.724;2022-12-16T18:01:23;15.34;73.51
75652;HTU21D;64248;43.602;39.724;2022-12-16T18:04:08;15.32;73.58
75652;HTU21D;64248;43.602;39.724;2022-12-16T18:06:55;15.32;73.64
75652;HTU21D;64248;43.602;39.724;2022-12-16T18:09:40;15.32;73.76
75652;HTU21D;64248;43.602;39.724;2022-12-16T18:12:24;15.31;73.86
75652;HTU21D;64248;43.602;39.724;2022-12-16T18:15:09;15.31;73.90
75652;HTU21D;64248;43.602;39.724;2022-12-16T18:17:53;15.31;73.90
75652;HTU21D;64248;43.602;39.724;2022-12-16T18:20:38;15.29;73.96
75652;HTU21D;64248;43.602;39.724;2022-12-16T18:23:22;15.29;74.09
75652;HTU21D;64248;43.602;39.724;2022-12-16T18:26:08;15.29;74.21
75652;HTU21D;64248;43.602;39.724;2022-12-16T18:28:54;15.30;74.26
75652;HTU21D;64248;43.602;39.724;2022-12-16T18:31:38;15.31;74.31
75652;HTU21D;64248;43.602;39.724;2022-12-16T18:34:22;15.33;74.36
75652;HTU21D;64248;43.602;39.724;2022-12-16T18:37:10;15.34;74.35
75652;HTU21D;64248;43.602;39.724;2022-12-16T18:39:54;15.37;74.29
75652;HTU21D;64248;43.602;39.724;2022-12-16T18:42:39;15.38;74.24
75652;HTU21D;64248;43.602;39.724;2022-12-16T18:45:23;15.38;74.23
75652;HTU21D;64248;43.602;39.724;2022-12-16T18:48:08;15.38;74.18
75652;HTU21D;64248;43.602;39.724;2022-12-16T18:50:57;15.39;74.19
75652;HTU21D;64248;43.602;39.724;2022-12-16T18:53:41;15.39;74.01